Airfield :







YOU CAN JOIN US ON...

 
LOGIN :

Register | Disclaimer

   EN    FR    IT 

 









Legend :    VFR   Marginal VFR   IFR   Intensive IFR   Very Intensive IFR
Visi :
Ceiling :
>= 8 km
>= 3000ft
5 to 8 km
1000 to 3000 ft
1500m to 5 km
500 to 1000 ft
800 to 1500m
200 to 500 ft
< 800m
< 200 ft
Symbols :   Thunderstorms  Fog  Heavy snow  Heavy precipitations  Wind > 20 kt







- Airport Elevation : 22 ft
- IATA code : YDP


CYDP - Nain

CURRENT METAR :
  • 171800Z 13008KT 070V160 15SM FEW028 17/14 A2925 RMK SC1 SLP905 DENSITY ALT 1100FT

EXPIRED METARs :
  • 171712Z 14008KT 15SM BKN028 19/16 A2926 RMK SC6 WND ESTD SLP909 DENSITY ALT 1300FT
  • 171600Z VRB02KT 15SM -SHRA BKN028 OVC090 13/12 A2928 RMK SC7AS1 SLP918 DENSITY ALT 500FT

TAF TAF CYDP
Valid from the 17 at 14:00 until the 17 at 23:00 UTC


171338Z 1714/1723 13012KT P6SM BKN030
TEMPO 1714/1723 5SM -SHRA BR OVC020
PROB30 1720/1723 2SM +TSRA BR BKN015 BKN030CB RMK NXT FCST BY 172000Z
CZQX FIR / North America



MET'MAP, your aeronautical weather chart ! - Copyright ORBIFLY December 2007 - Disclaimer

ORBIFLY MET'MAP TEAM :

Programming & Development : Alexandra Zaïnal
Concept & Development : Baudouin d'Aumeries
Co-Development & Prog : Marc-Olivier Méhu
Technical & hardware support : Manuel Goepfert

Contact : metmap@orbifly.com




SOURCES & CREDITS :

   NOAA